Time;durP1;ratioP1;P1;durP2;ratioP2;P2;SDS_P1;SDS_P2;PMS_P1;PMS_P2;Temp;Humidity;BMP_temperature;BMP_pressure;BME280_temperature;BME280_humidity;BME280_pressure;Samples;Min_cycle;Max_cycle;Signal;HPM_P1;HPM_P2
2022/05/10 00:01:41;;;;;;;17.80;7.60;;;;;;;;;;5051950;28;20422;-77
2022/05/10 00:04:09;;;;;;;11.52;7.13;;;13.50;99.90;;;;;;5033946;28;20893;-77
2022/05/10 00:06:37;;;;;;;13.68;7.78;;;;;;;;;;5050302;28;20464;-77
2022/05/10 00:09:04;;;;;;;15.23;6.95;;;13.50;99.90;;;;;;5050062;28;20482;-77
2022/05/10 00:11:30;;;;;;;12.57;6.97;;;;;;;;;;5053242;28;20415;-77
2022/05/10 00:13:56;;;;;;;13.55;6.88;;;;;;;;;;5052765;28;20911;-77
2022/05/10 00:16:22;;;;;;;12.80;7.33;;;;;;;;;;5042929;28;20950;-77
2022/05/10 00:18:48;;;;;;;15.82;7.68;;;;;;;;;;5048146;28;20413;-77
2022/05/10 00:21:20;;;;;;;12.85;7.03;;;;;;;;;;5049440;28;20425;-77
2022/05/10 00:23:46;;;;;;;14.60;7.10;;;;;;;;;;5043092;28;20421;-77
2022/05/10 00:26:12;;;;;;;13.57;6.90;;;;;;;;;;5051344;28;20480;-77
2022/05/10 00:28:38;;;;;;;11.85;7.05;;;;;;;;;;5051931;28;20913;-77
2022/05/10 00:31:06;;;;;;;13.52;6.85;;;13.60;99.90;;;;;;5051990;28;20444;-77
2022/05/10 00:33:32;;;;;;;15.85;7.60;;;;;;;;;;5035265;28;20449;-77
2022/05/10 00:35:58;;;;;;;13.45;7.13;;;13.50;99.90;;;;;;5033041;28;20508;-76
2022/05/10 00:38:31;;;;;;;12.90;7.30;;;13.20;99.90;;;;;;5046636;28;20417;-77
2022/05/10 00:41:06;;;;;;;15.25;7.20;;;13.80;99.90;;;;;;5050890;28;20423;-76
2022/05/10 00:43:36;;;;;;;14.05;6.68;;;13.30;99.90;;;;;;5044263;28;20448;-76
2022/05/10 00:46:05;;;;;;;14.70;7.13;;;;;;;;;;5050813;28;20875;-76
2022/05/10 00:48:36;;;;;;;18.00;7.28;;;;;;;;;;5052523;28;20523;-76
2022/05/10 00:51:20;;;;;;;14.35;6.78;;;;;;;;;;5046246;28;20425;-75
2022/05/10 00:53:54;;;;;;;14.10;6.60;;;;;;;;;;5052980;28;20493;-76
2022/05/10 00:56:39;;;;;;;14.25;6.68;;;;;;;;;;5049556;28;20835;-76
2022/05/10 00:59:15;;;;;;;12.73;6.95;;;;;;;;;;5048304;28;20667;-77
2022/05/10 01:01:44;;;;;;;12.48;6.55;;;13.80;99.90;;;;;;5049827;28;20424;-77
2022/05/10 01:04:26;;;;;;;12.45;6.78;;;13.50;99.90;;;;;;5049011;28;20479;-76
2022/05/10 01:07:01;;;;;;;12.60;6.90;;;13.90;99.90;;;;;;5034301;28;20430;-76
2022/05/10 01:09:39;;;;;;;19.02;7.57;;;13.70;99.90;;;;;;5050435;28;20425;-76
2022/05/10 01:12:14;;;;;;;14.70;7.10;;;13.60;99.90;;;;;;5052426;28;20453;-76
2022/05/10 01:15:05;;;;;;;16.17;7.10;;;13.40;99.90;;;;;;5050250;28;20940;-76
2022/05/10 01:17:31;;;;;;;13.10;7.00;;;;;;;;;;5049804;28;20519;-76
2022/05/10 01:19:58;;;;;;;14.32;7.10;;;;;;;;;;5033338;28;20492;-77
2022/05/10 01:22:42;;;;;;;15.07;7.00;;;;;;;;;;5050428;28;20566;-76
2022/05/10 01:25:16;;;;;;;13.95;7.10;;;;;;;;;;5047975;28;20413;-76
2022/05/10 01:27:42;;;;;;;15.20;6.67;;;;;;;;;;5051745;28;20413;-76
2022/05/10 01:30:10;;;;;;;19.83;7.60;;;;;;;;;;5050683;28;20425;-76
2022/05/10 01:35:52;;;;;;;15.88;7.30;;;;;;;;;;5046968;28;20437;-76
2022/05/10 01:38:31;;;;;;;17.65;7.85;;;;;;;;;;5051682;28;20402;-76
2022/05/10 01:41:04;;;;;;;15.95;7.10;;;;;;;;;;5038099;28;20559;-76
2022/05/10 01:43:30;;;;;;;16.00;7.53;;;;;;;;;;5051735;28;20504;-76
2022/05/10 01:46:00;;;;;;;20.50;7.78;;;;;;;;;;5050759;28;20417;-77
2022/05/10 01:48:27;;;;;;;15.20;6.68;;;;;;;;;;5050770;28;20540;-76
2022/05/10 01:51:14;;;;;;;19.35;6.93;;;13.10;99.90;;;;;;5049920;28;20456;-76
2022/05/10 01:53:40;;;;;;;16.60;7.03;;;;;;;;;;5050705;28;20421;-76
2022/05/10 01:56:09;;;;;;;15.75;7.10;;;13.30;99.90;;;;;;5049301;28;20429;-76
2022/05/10 01:58:38;;;;;;;16.38;6.90;;;13.10;99.90;;;;;;5051079;28;20401;-76
2022/05/10 02:01:06;;;;;;;17.27;7.23;;;;;;;;;;5032776;28;20479;-76
2022/05/10 02:03:39;;;;;;;18.30;6.95;;;;;;;;;;5045965;28;20550;-76
2022/05/10 02:06:11;;;;;;;16.02;7.13;;;;;;;;;;5039374;28;20936;-76
2022/05/10 02:08:44;;;;;;;16.77;7.35;;;;;;;;;;5049420;28;20431;-76
2022/05/10 02:11:11;;;;;;;16.88;6.28;;;;;;;;;;5051435;28;20887;-76
2022/05/10 02:14:05;;;;;;;12.30;6.47;;;13.50;99.90;;;;;;5031221;28;20791;-76
2022/05/10 02:16:40;;;;;;;10.80;6.45;;;;;;;;;;5047480;28;20508;-76
2022/05/10 02:19:20;;;;;;;15.57;6.60;;;13.50;99.90;;;;;;5050617;28;20406;-76
2022/05/10 02:22:13;;;;;;;11.63;6.80;;;;;;;;;;5046798;28;20421;-76
2022/05/10 02:24:39;;;;;;;16.02;7.47;;;;;;;;;;5040014;28;20478;-76
2022/05/10 02:27:13;;;;;;;17.58;7.00;;;13.50;99.90;;;;;;5050588;28;20424;-75
2022/05/10 02:30:00;;;;;;;13.57;6.77;;;;;;;;;;5032828;28;20421;-75
2022/05/10 02:33:07;;;;;;;13.07;7.30;;;;;;;;;;5047299;28;20888;-76
2022/05/10 02:35:56;;;;;;;16.17;7.10;;;13.90;99.90;;;;;;5031362;28;20956;-77
2022/05/10 02:38:23;;;;;;;14.45;7.68;;;;;;;;;;5048538;28;20421;-78
2022/05/10 02:40:52;;;;;;;17.93;7.03;;;;;;;;;;5049809;28;20945;-78
2022/05/10 02:43:20;;;;;;;17.48;7.40;;;;;;;;;;5045691;28;20409;-77
2022/05/10 02:45:46;;;;;;;13.77;7.97;;;;;;;;;;5048267;28;21123;-77
2022/05/10 02:48:15;;;;;;;14.40;7.82;;;13.70;99.90;;;;;;5050427;28;20440;-77
2022/05/10 02:50:43;;;;;;;13.32;7.20;;;;;;;;;;5046637;28;20472;-77
2022/05/10 02:53:09;;;;;;;16.80;7.53;;;;;;;;;;5048746;28;20524;-77
2022/05/10 02:55:47;;;;;;;14.63;7.60;;;13.80;99.90;;;;;;5046990;28;20515;-77
2022/05/10 02:58:35;;;;;;;13.67;7.87;;;13.90;99.90;;;;;;5050321;28;20401;-77
2022/05/10 03:01:05;;;;;;;13.75;7.50;;;;;;;;;;5049052;28;20421;-78
2022/05/10 03:03:31;;;;;;;14.82;7.25;;;;;;;;;;5031849;28;20489;-77
2022/05/10 03:05:57;;;;;;;13.90;7.53;;;;;;;;;;5043743;28;20436;-78
2022/05/10 03:08:23;;;;;;;16.40;8.53;;;;;;;;;;5049888;28;20484;-77
2022/05/10 03:10:49;;;;;;;17.08;8.43;;;;;;;;;;5049159;28;20433;-77
2022/05/10 03:13:16;;;;;;;15.88;8.00;;;;;;;;;;5031660;28;20520;-77
2022/05/10 03:15:42;;;;;;;15.25;8.10;;;;;;;;;;5031985;28;20425;-77
2022/05/10 03:18:08;;;;;;;16.00;8.75;;;13.50;99.90;;;;;;5047594;28;20988;-77
2022/05/10 03:20:34;;;;;;;16.90;8.20;;;;;;;;;;5050134;28;20409;-78
2022/05/10 03:23:00;;;;;;;18.67;8.13;;;13.50;99.90;;;;;;5048876;28;20421;-78
2022/05/10 03:25:26;;;;;;;16.55;8.30;;;;;;;;;;5046677;28;20432;-78
2022/05/10 03:27:52;;;;;;;17.43;8.97;;;;;;;;;;5029970;28;20452;-78
2022/05/10 03:30:19;;;;;;;13.98;7.93;;;;;;;;;;5049767;28;20462;-78
2022/05/10 03:32:45;;;;;;;14.70;8.30;;;;;;;;;;5047662;28;20425;-77
2022/05/10 03:35:12;;;;;;;17.90;8.20;;;13.60;99.90;;;;;;5032374;28;20432;-78
2022/05/10 03:37:38;;;;;;;15.98;8.45;;;;;;;;;;5030383;28;20496;-78
2022/05/10 03:40:04;;;;;;;17.52;8.68;;;;;;;;;;5047386;28;20504;-78
2022/05/10 03:42:30;;;;;;;15.80;8.88;;;13.80;99.90;;;;;;5046103;28;20428;-78
2022/05/10 03:44:56;;;;;;;14.25;8.35;;;;;;;;;;5032426;28;20429;-79
2022/05/10 03:47:23;;;;;;;17.40;8.50;;;;;;;;;;5048882;28;20514;-79
2022/05/10 03:49:49;;;;;;;25.55;9.68;;;;;;;;;;5048871;28;20425;-79
2022/05/10 03:52:16;;;;;;;17.13;9.10;;;;;;;;;;5048586;28;20684;-78
2022/05/10 03:54:43;;;;;;;20.00;8.57;;;13.70;99.90;;;;;;5047102;28;20447;-79
2022/05/10 03:57:09;;;;;;;16.05;8.93;;;;;;;;;;5046223;28;20425;-79
2022/05/10 03:59:41;;;;;;;19.52;8.80;;;;;;;;;;5042625;28;20440;-78
2022/05/10 04:02:11;;;;;;;16.42;8.95;;;13.50;99.90;;;;;;5046811;28;20425;-78
2022/05/10 04:04:37;;;;;;;18.38;9.02;;;;;;;;;;5048894;28;20428;-78
2022/05/10 04:07:03;;;;;;;18.67;8.80;;;;;;;;;;5047949;28;20460;-78
2022/05/10 04:09:29;;;;;;;17.02;9.45;;;;;;;;;;5048537;28;20432;-78
2022/05/10 04:11:55;;;;;;;14.40;8.63;;;;;;;;;;5047261;28;20512;-78
2022/05/10 04:14:21;;;;;;;18.02;9.30;;;;;;;;;;5046668;28;20479;-78
2022/05/10 04:16:47;;;;;;;16.10;9.17;;;;;;;;;;5048197;28;20426;-78
2022/05/10 04:19:13;;;;;;;15.95;9.05;;;;;;;;;;5032732;28;20419;-78
2022/05/10 04:21:39;;;;;;;17.85;10.02;;;;;;;;;;5030346;28;20931;-78
2022/05/10 04:24:06;;;;;;;18.55;9.40;;;;;;;;;;5049694;28;20480;-78
2022/05/10 04:26:32;;;;;;;19.40;10.02;;;;;;;;;;5032015;28;20429;-78
2022/05/10 04:28:58;;;;;;;20.65;9.38;;;;;;;;;;5050612;28;20432;-78
2022/05/10 04:31:25;;;;;;;22.35;9.82;;;;;;;;;;5052019;28;20454;-78
2022/05/10 04:33:51;;;;;;;19.20;9.50;;;;;;;;;;5050959;28;20425;-78
2022/05/10 04:36:17;;;;;;;18.55;9.68;;;;;;;;;;5050827;28;20440;-78
2022/05/10 04:38:46;;;;;;;16.50;9.50;;;14.10;99.90;;;;;;5049421;28;20502;-78
2022/05/10 04:41:24;;;;;;;16.60;9.57;;;14.00;99.90;;;;;;5051404;28;20911;-78
2022/05/10 04:43:51;;;;;;;18.17;10.27;;;;;;;;;;5024659;28;20423;-78
2022/05/10 04:46:17;;;;;;;19.42;10.10;;;13.70;99.90;;;;;;5044909;28;20428;-78
2022/05/10 04:48:43;;;;;;;19.80;9.83;;;14.00;99.90;;;;;;5051026;28;20973;-78
2022/05/10 04:51:10;;;;;;;17.45;9.57;;;;;;;;;;5034921;28;20754;-78
2022/05/10 04:53:36;;;;;;;18.27;9.90;;;;;;;;;;5051607;28;20425;-78
2022/05/10 04:56:05;;;;;;;18.30;9.70;;;;;;;;;;5049167;28;20495;-79
2022/05/10 04:58:31;;;;;;;15.95;9.70;;;;;;;;;;5050394;28;20901;-79
2022/05/10 05:01:04;;;;;;;17.63;9.80;;;;;;;;;;5050408;28;20427;-78
2022/05/10 05:03:31;;;;;;;14.60;9.85;;;;;;;;;;5050556;28;20508;-78
2022/05/10 05:05:57;;;;;;;18.88;10.10;;;;;;;;;;5051230;28;20439;-79
2022/05/10 05:08:23;;;;;;;16.67;10.37;;;;;;;;;;5050414;28;20433;-78
2022/05/10 05:10:49;;;;;;;16.98;9.93;;;;;;;;;;5032242;28;20425;-78
2022/05/10 05:13:15;;;;;;;15.95;9.70;;;14.10;99.90;;;;;;5051185;28;20421;-79
2022/05/10 05:15:41;;;;;;;18.23;10.23;;;;;;;;;;5049214;28;20483;-78
2022/05/10 05:18:09;;;;;;;18.17;10.15;;;;;;;;;;5050632;28;20421;-78
2022/05/10 05:20:36;;;;;;;17.75;10.73;;;14.50;99.90;;;;;;5047884;28;20422;-79
2022/05/10 05:23:08;;;;;;;15.13;10.32;;;;;;;;;;5048621;28;20524;-80
2022/05/10 05:25:34;;;;;;;16.98;10.68;;;;;;;;;;5050974;28;20452;-79
2022/05/10 05:28:00;;;;;;;15.77;9.90;;;;;;;;;;5048683;28;20421;-81
2022/05/10 05:30:26;;;;;;;18.10;10.60;;;14.60;99.90;;;;;;5033461;28;20413;-79
2022/05/10 05:32:52;;;;;;;17.77;11.23;;;;;;;;;;5050479;28;20750;-77
2022/05/10 05:35:18;;;;;;;19.52;10.68;;;;;;;;;;5052124;28;20408;-79
2022/05/10 05:37:44;;;;;;;17.65;10.48;;;14.80;99.90;;;;;;5031677;28;20773;-78
2022/05/10 05:40:12;;;;;;;15.85;9.85;;;14.80;99.90;;;;;;5048931;28;20425;-78
2022/05/10 05:42:38;;;;;;;17.55;10.68;;;;;;;;;;5048812;28;20429;-78
2022/05/10 05:45:06;;;;;;;23.38;10.32;;;14.70;99.90;;;;;;5050661;28;20421;-77
2022/05/10 05:47:33;;;;;;;19.45;11.18;;;;;;;;;;5033324;28;20452;-77
2022/05/10 05:49:59;;;;;;;17.55;10.15;;;;;;;;;;5048126;28;20519;-78
2022/05/10 05:52:25;;;;;;;15.77;9.43;;;;;;;;;;5049003;28;21005;-77
2022/05/10 05:54:52;;;;;;;15.32;9.70;;;15.20;99.90;;;;;;5051056;28;20865;-77
2022/05/10 05:57:19;;;;;;;17.83;10.03;;;15.10;99.90;;;;;;5046266;28;20695;-78
2022/05/10 05:59:45;;;;;;;14.90;8.98;;;;;;;;;;5051177;28;20485;-78
2022/05/10 06:02:14;;;;;;;14.13;9.02;;;15.40;99.90;;;;;;5045776;28;20928;-77
2022/05/10 06:04:40;;;;;;;17.23;9.65;;;;;;;;;;5045132;28;20437;-78
2022/05/10 06:07:06;;;;;;;23.65;9.63;;;15.80;99.90;;;;;;5051180;28;20405;-78
2022/05/10 06:09:32;;;;;;;15.05;8.95;;;;;;;;;;5051455;28;20496;-81
2022/05/10 06:11:58;;;;;;;14.97;9.00;;;16.00;99.90;;;;;;5046497;28;20425;-81
2022/05/10 06:14:24;;;;;;;13.87;8.77;;;;;;;;;;5047086;28;20447;-81
2022/05/10 06:16:50;;;;;;;16.27;8.35;;;;;;;;;;5050786;28;20485;-82
2022/05/10 06:19:16;;;;;;;16.25;8.40;;;16.10;99.90;;;;;;5016756;28;20439;-80
2022/05/10 06:21:43;;;;;;;16.33;8.40;;;;;;;;;;5049739;28;20523;-81
2022/05/10 06:24:10;;;;;;;16.07;7.90;;;16.40;99.90;;;;;;5042537;28;20455;-80
2022/05/10 06:26:36;;;;;;;15.70;7.90;;;;;;;;;;5010612;28;20899;-81
2022/05/10 06:29:03;;;;;;;11.87;7.90;;;;;;;;;;5051113;28;20455;-79
2022/05/10 06:31:29;;;;;;;10.93;7.35;;;;;;;;;;5048613;28;20425;-77
2022/05/10 06:33:54;;;;;;;16.75;8.10;;;16.90;99.90;;;;;;5044641;28;20465;-79
2022/05/10 06:36:20;;;;;;;13.70;8.15;;;17.50;99.90;;;;;;5049586;28;20464;-79
2022/05/10 06:38:46;;;;;;;11.77;7.68;;;17.40;99.90;;;;;;5051262;28;20417;-79
2022/05/10 06:41:12;;;;;;;15.25;7.60;;;17.60;99.90;;;;;;5049469;28;20429;-79
2022/05/10 06:43:38;;;;;;;13.82;7.47;;;17.40;99.90;;;;;;5030653;28;20425;-79
2022/05/10 06:46:19;;;;;;;10.07;7.10;;;17.60;99.90;;;;;;5034752;28;20409;-79
2022/05/10 06:48:46;;;;;;;16.98;7.25;;;;;;;;;;5049089;28;20482;-79
2022/05/10 06:51:13;;;;;;;10.23;6.70;;;17.80;99.90;;;;;;5045072;28;20499;-79
2022/05/10 06:53:39;;;;;;;12.27;7.30;;;18.10;99.90;;;;;;5049282;28;20436;-79
2022/05/10 06:56:06;;;;;;;11.90;7.00;;;17.90;99.90;;;;;;5049120;28;20418;-79
2022/05/10 06:58:31;;;;;;;10.35;6.60;;;18.30;99.90;;;;;;5045951;28;20416;-79
2022/05/10 07:00:58;;;;;;;10.93;6.73;;;;;;;;;;5041336;28;20486;-79
2022/05/10 07:03:31;;;;;;;12.25;6.68;;;18.40;99.90;;;;;;5032407;28;20461;-79
2022/05/10 07:06:02;;;;;;;10.45;6.95;;;18.60;99.90;;;;;;5035089;28;20429;-76
2022/05/10 07:08:29;;;;;;;10.52;6.43;;;18.40;99.90;;;;;;5023048;28;20502;-78
2022/05/10 07:10:55;;;;;;;10.27;6.20;;;18.70;99.90;;;;;;5039950;28;20429;-78
2022/05/10 07:13:24;;;;;;;12.98;6.90;;;18.50;99.90;;;;;;5032309;28;20754;-80
2022/05/10 07:15:49;;;;;;;12.32;6.35;;;19.10;99.90;;;;;;5031814;28;20500;-76
2022/05/10 07:18:16;;;;;;;9.27;6.15;;;19.00;99.90;;;;;;5034226;28;20519;-76
2022/05/10 07:20:43;;;;;;;12.10;6.20;;;19.20;99.90;;;;;;5041563;28;20876;-76
2022/05/10 07:23:10;;;;;;;19.10;6.32;;;19.20;99.90;;;;;;5037419;28;20473;-76
2022/05/10 07:25:37;;;;;;;11.25;6.10;;;19.30;99.90;;;;;;5036558;28;20508;-76
2022/05/10 07:28:05;;;;;;;14.90;6.00;;;19.40;99.90;;;;;;5041089;28;20407;-76
2022/05/10 07:30:31;;;;;;;9.45;5.40;;;19.50;99.90;;;;;;5037625;28;20963;-76
2022/05/10 07:32:57;;;;;;;14.48;6.32;;;19.80;99.90;;;;;;5039563;28;20485;-75
2022/05/10 07:38:09;;;;;;;13.13;5.63;;;19.90;99.90;;;;;;5038002;28;20945;-78
2022/05/10 07:40:35;;;;;;;10.25;5.82;;;20.10;99.90;;;;;;5044523;28;20416;-77
2022/05/10 07:43:00;;;;;;;12.75;6.28;;;20.00;99.90;;;;;;5045510;28;20433;-77
2022/05/10 07:45:26;;;;;;;10.02;5.57;;;20.20;99.90;;;;;;5038593;28;20504;-77
2022/05/10 07:47:52;;;;;;;12.33;6.10;;;20.50;99.90;;;;;;5037462;28;20435;-78
2022/05/10 07:50:18;;;;;;;12.83;5.47;;;20.30;99.90;;;;;;5035409;28;20428;-76
2022/05/10 07:52:44;;;;;;;10.68;5.10;;;20.40;99.90;;;;;;5022690;28;20428;-75
2022/05/10 07:55:12;;;;;;;14.68;5.63;;;20.80;99.90;;;;;;5038962;28;20425;-75
2022/05/10 07:57:39;;;;;;;13.95;5.40;;;20.70;99.90;;;;;;5040310;28;20437;-75
2022/05/10 08:00:09;;;;;;;11.88;5.45;;;20.70;99.90;;;;;;5039744;28;20500;-74
2022/05/10 08:02:35;;;;;;;11.60;5.70;;;20.60;99.90;;;;;;5040624;28;20429;-74
2022/05/10 08:05:02;;;;;;;11.10;5.05;;;20.60;99.90;;;;;;5013661;28;20417;-74
2022/05/10 08:07:28;;;;;;;11.03;5.00;;;20.50;99.90;;;;;;5048567;28;20433;-74
2022/05/10 08:09:54;;;;;;;14.30;5.15;;;21.10;99.90;;;;;;5024573;28;20447;-74
2022/05/10 08:12:21;;;;;;;11.90;5.03;;;20.90;99.90;;;;;;5048858;28;20471;-74
2022/05/10 08:14:47;;;;;;;12.35;5.40;;;20.90;99.90;;;;;;5023905;28;20422;-75
2022/05/10 08:17:12;;;;;;;11.45;4.80;;;20.90;99.90;;;;;;5031850;28;20520;-75
2022/05/10 08:19:38;;;;;;;7.70;4.50;;;21.20;99.90;;;;;;5017409;28;20452;-74
2022/05/10 08:22:04;;;;;;;11.80;4.40;;;20.90;99.90;;;;;;5018635;28;20504;-74
2022/05/10 08:24:30;;;;;;;9.80;4.38;;;20.90;99.90;;;;;;5037939;28;20413;-74
2022/05/10 08:26:55;;;;;;;13.13;4.77;;;21.40;99.90;;;;;;5023846;28;20457;-75
2022/05/10 08:29:21;;;;;;;12.33;4.43;;;21.50;99.90;;;;;;5039782;28;20441;-75
2022/05/10 08:31:47;;;;;;;9.00;4.35;;;21.20;99.90;;;;;;5026621;28;20775;-73
2022/05/10 08:34:12;;;;;;;10.43;4.20;;;21.50;99.90;;;;;;5046220;28;20501;-75
2022/05/10 08:36:38;;;;;;;10.90;4.70;;;21.30;99.90;;;;;;5021455;28;20423;-75
2022/05/10 08:39:04;;;;;;;10.07;4.00;;;21.50;99.90;;;;;;5038523;28;20479;-75
2022/05/10 08:41:40;;;;;;;14.82;4.25;;;21.40;99.90;;;;;;5029730;28;21305;-75
2022/05/10 08:44:14;;;;;;;11.77;4.40;;;21.50;99.90;;;;;;5037012;28;20425;-75
2022/05/10 08:46:44;;;;;;;8.38;3.80;;;21.70;99.90;;;;;;5023384;28;20432;-74
2022/05/10 08:49:42;;;;;;;11.50;3.90;;;21.40;99.90;;;;;;5020844;28;20410;-75
2022/05/10 08:52:07;;;;;;;18.25;4.28;;;21.50;99.90;;;;;;5030481;28;20417;-75
2022/05/10 08:54:37;;;;;;;7.67;4.10;;;21.60;99.90;;;;;;5038873;28;20764;-74
2022/05/10 08:57:24;;;;;;;9.05;4.20;;;21.70;99.90;;;;;;5035200;28;20436;-73
2022/05/10 09:00:03;;;;;;;11.38;4.10;;;21.40;99.90;;;;;;5029643;28;20418;-74
2022/05/10 09:02:52;;;;;;;7.18;4.10;;;21.60;99.90;;;;;;5032931;28;20509;-74
2022/05/10 09:05:37;;;;;;;9.15;4.20;;;21.90;99.90;;;;;;5028392;28;21465;-74
2022/05/10 09:08:47;;;;;;;9.03;4.23;;;21.60;99.90;;;;;;5040584;28;21009;-73
2022/05/10 09:11:15;;;;;;;12.67;5.03;;;21.90;99.90;;;;;;5034394;28;20425;-74
2022/05/10 09:13:42;;;;;;;24.15;4.38;;;21.90;99.90;;;;;;5037907;28;20442;-73
2022/05/10 09:16:13;;;;;;;12.03;4.30;;;21.80;99.90;;;;;;5022656;28;20514;-73
2022/05/10 09:18:57;;;;;;;12.75;4.90;;;22.00;99.90;;;;;;5043514;28;20413;-72
2022/05/10 09:21:40;;;;;;;14.75;4.78;;;22.20;99.90;;;;;;5038216;28;20429;-72
2022/05/10 09:24:15;;;;;;;13.45;4.47;;;22.20;99.90;;;;;;5037013;28;20483;-73
2022/05/10 09:26:51;;;;;;;11.20;4.90;;;22.40;99.90;;;;;;5034262;28;20427;-73
2022/05/10 09:29:39;;;;;;;9.45;4.68;;;22.20;99.90;;;;;;5039698;28;20431;-74
2022/05/10 09:35:17;;;;;;;12.88;5.07;;;22.10;99.90;;;;;;5032101;28;20485;-74
2022/05/10 09:37:53;;;;;;;11.32;5.03;;;22.50;99.90;;;;;;5029215;28;20431;-73
2022/05/10 09:40:35;;;;;;;11.40;5.15;;;22.40;99.90;;;;;;5034762;28;20448;-74
2022/05/10 09:43:21;;;;;;;9.40;5.50;;;22.50;99.90;;;;;;5026837;28;20425;-73
2022/05/10 09:46:18;;;;;;;11.68;5.28;;;22.80;99.90;;;;;;5039348;28;20433;-73
2022/05/10 09:48:44;;;;;;;11.98;5.85;;;22.70;99.90;;;;;;5033485;28;20451;-73
2022/05/10 09:51:36;;;;;;;12.73;5.72;;;22.60;99.90;;;;;;5040824;28;20800;-73
2022/05/10 09:54:21;;;;;;;16.20;6.65;;;22.50;99.90;;;;;;5019506;28;20433;-73
2022/05/10 09:56:53;;;;;;;13.85;5.97;;;22.40;99.90;;;;;;5040124;28;20455;-74
2022/05/10 09:59:18;;;;;;;9.25;5.80;;;22.50;99.90;;;;;;5037247;28;20554;-74
2022/05/10 10:01:49;;;;;;;14.23;6.10;;;22.60;99.90;;;;;;5033976;28;20413;-74
2022/05/10 10:04:20;;;;;;;11.95;5.85;;;22.50;99.90;;;;;;5033784;28;20441;-74
2022/05/10 10:07:08;;;;;;;12.30;6.00;;;22.50;99.90;;;;;;5033705;28;20507;-75
2022/05/10 10:09:37;;;;;;;24.15;6.30;;;22.60;99.90;;;;;;5039258;28;20513;-74
2022/05/10 10:12:05;;;;;;;14.95;6.47;;;22.40;99.90;;;;;;5042760;28;20463;-75
2022/05/10 10:14:39;;;;;;;11.95;6.30;;;22.50;99.90;;;;;;5025242;28;20417;-75
2022/05/10 10:17:07;;;;;;;14.63;6.30;;;22.90;99.90;;;;;;5046822;28;20433;-74
2022/05/10 10:19:41;;;;;;;10.93;6.38;;;23.00;99.90;;;;;;5045167;28;20438;-74
2022/05/10 10:22:33;;;;;;;9.35;6.30;;;23.40;99.90;;;;;;5046994;28;20421;-75
2022/05/10 10:25:18;;;;;;;10.90;6.72;;;23.50;99.90;;;;;;5030573;28;20513;-75
2022/05/10 10:27:56;;;;;;;14.80;6.40;;;23.80;99.90;;;;;;5032087;28;20907;-75
2022/05/10 10:30:36;;;;;;;11.95;5.80;;;24.20;99.90;;;;;;5044899;28;20483;-74
2022/05/10 10:33:06;;;;;;;11.77;6.17;;;24.30;99.90;;;;;;5043151;28;20431;-74
2022/05/10 10:35:39;;;;;;;12.85;6.20;;;24.60;99.90;;;;;;5027646;28;20564;-75
2022/05/10 10:38:17;;;;;;;13.15;6.50;;;24.70;99.90;;;;;;5044349;28;20429;-74
2022/05/10 10:41:05;;;;;;;11.57;6.20;;;24.10;99.90;;;;;;5059432;28;20471;-75
2022/05/10 10:44:04;;;;;;;13.65;6.18;;;23.50;99.90;;;;;;5022466;28;20421;-75
2022/05/10 10:46:47;;;;;;;10.45;6.00;;;24.50;99.90;;;;;;5045427;28;20491;-74
2022/05/10 10:49:17;;;;;;;11.87;6.27;;;24.00;99.90;;;;;;5035429;28;20453;-74
2022/05/10 10:51:43;;;;;;;10.13;5.00;;;24.00;99.90;;;;;;5021560;28;20425;-74
2022/05/10 10:54:17;;;;;;;12.50;4.40;;;23.80;99.90;;;;;;5037198;28;21035;-74
2022/05/10 10:57:01;;;;;;;10.45;4.00;;;23.30;99.90;;;;;;5039179;28;20427;-75
2022/05/10 10:59:27;;;;;;;10.93;4.00;;;23.40;99.90;;;;;;5039485;28;20425;-75
2022/05/10 11:02:10;;;;;;;13.90;3.80;;;23.30;99.90;;;;;;5047771;28;20428;-75
2022/05/10 11:05:17;;;;;;;10.63;3.92;;;23.20;99.90;;;;;;5030110;28;20432;-74
2022/05/10 11:08:10;;;;;;;8.77;3.45;;;21.20;99.90;;;;;;5044681;28;20441;-76
2022/05/10 11:10:55;;;;;;;6.25;3.22;;;23.00;99.90;;;;;;5027375;28;20463;-75
2022/05/10 11:13:34;;;;;;;7.95;3.67;;;23.00;99.90;;;;;;5029973;28;20808;-75
2022/05/10 11:16:20;;;;;;;7.20;4.07;;;23.10;99.90;;;;;;5041588;28;20425;-74
2022/05/10 11:18:53;;;;;;;14.23;4.55;;;23.00;99.90;;;;;;5049610;28;20413;-74
2022/05/10 11:21:46;;;;;;;10.60;4.50;;;22.80;99.90;;;;;;5043798;28;20432;-74
2022/05/10 11:24:23;;;;;;;8.50;4.75;;;22.90;99.90;;;;;;5032160;28;20798;-77
2022/05/10 11:27:22;;;;;;;16.42;5.22;;;23.30;99.90;;;;;;5032464;28;20410;-77
2022/05/10 11:30:18;;;;;;;10.45;4.70;;;23.30;99.90;;;;;;5049952;28;20749;-77
2022/05/10 11:33:09;;;;;;;18.23;5.78;;;23.40;99.90;;;;;;5032382;28;20405;-77
2022/05/10 11:35:59;;;;;;;8.68;5.35;;;23.60;99.90;;;;;;5048663;28;20422;-77
2022/05/10 11:38:43;;;;;;;9.97;5.93;;;23.50;99.90;;;;;;5050294;28;20421;-77
2022/05/10 11:41:30;;;;;;;12.40;6.00;;;23.30;99.90;;;;;;5051204;28;20757;-77
2022/05/10 11:44:22;;;;;;;10.32;5.90;;;23.30;99.90;;;;;;5048546;28;20475;-77
2022/05/10 11:47:17;;;;;;;14.90;6.07;;;23.60;99.90;;;;;;5013551;28;20906;-77
2022/05/10 11:50:01;;;;;;;10.25;5.85;;;23.50;99.90;;;;;;5013492;28;20915;-77
2022/05/10 11:52:38;;;;;;;12.80;6.88;;;23.70;99.90;;;;;;5044480;28;20498;-77
2022/05/10 11:55:21;;;;;;;14.50;6.65;;;23.90;99.90;;;;;;5048839;28;20429;-76
2022/05/10 11:57:49;;;;;;;15.60;7.60;;;23.90;99.90;;;;;;5048785;28;20461;-76
2022/05/10 12:00:27;;;;;;;19.67;7.65;;;24.10;99.90;;;;;;5049746;28;20474;-76
2022/05/10 12:02:54;;;;;;;10.52;7.57;;;24.10;99.90;;;;;;5050066;28;20397;-77
2022/05/10 12:05:23;;;;;;;18.80;8.32;;;24.00;99.90;;;;;;5049887;28;20916;-77
2022/05/10 12:07:55;;;;;;;15.88;7.43;;;24.20;99.90;;;;;;5050349;28;20479;-77
2022/05/10 12:10:42;;;;;;;17.20;6.95;;;24.10;99.90;;;;;;5049615;28;20409;-77
2022/05/10 12:22:16;;;;;;;12.73;5.88;;;23.50;99.90;;;;;;5049949;28;20409;-77
2022/05/10 12:24:45;;;;;;;14.43;6.28;;;23.50;99.90;;;;;;5048857;28;20513;-77
2022/05/10 12:27:10;;;;;;;15.85;5.25;;;23.90;99.90;;;;;;5032038;28;20429;-77
2022/05/10 12:29:39;;;;;;;14.27;5.30;;;23.90;99.90;;;;;;5049524;28;20731;-77
2022/05/10 12:32:17;;;;;;;13.10;5.28;;;23.80;99.90;;;;;;5049859;28;20409;-76
2022/05/10 12:35:01;;;;;;;21.20;5.93;;;23.80;99.90;;;;;;5049672;28;20417;-77
2022/05/10 12:37:28;;;;;;;8.32;4.38;;;23.70;99.90;;;;;;5032851;28;20421;-77
2022/05/10 12:40:00;;;;;;;12.70;4.40;;;23.70;99.90;;;;;;5049092;28;20954;-77
2022/05/10 12:42:44;;;;;;;11.38;3.85;;;23.60;99.90;;;;;;5046436;28;20421;-77
2022/05/10 12:45:37;;;;;;;8.27;3.60;;;23.60;99.90;;;;;;5047540;28;20908;-76
2022/05/10 12:48:06;;;;;;;16.25;3.65;;;23.60;99.90;;;;;;5052304;28;20429;-77
2022/05/10 12:51:03;;;;;;;11.40;3.63;;;23.60;99.90;;;;;;5052815;28;20552;-76
2022/05/10 12:53:58;;;;;;;13.70;3.60;;;23.60;99.90;;;;;;5052291;28;20423;-77
2022/05/10 12:56:55;;;;;;;15.55;3.78;;;23.20;99.90;;;;;;5035791;28;20425;-77
2022/05/10 12:59:48;;;;;;;9.37;3.30;;;23.00;99.90;;;;;;5018857;28;20817;-76
2022/05/10 13:02:14;;;;;;;6.10;3.33;;;22.90;99.90;;;;;;5034045;28;20450;-77
2022/05/10 13:04:46;;;;;;;8.82;3.45;;;23.20;99.90;;;;;;5050208;28;20401;-76
2022/05/10 13:07:24;;;;;;;10.88;3.63;;;23.40;99.90;;;;;;5050695;28;20956;-75
2022/05/10 13:09:57;;;;;;;16.23;3.75;;;24.00;99.90;;;;;;5047692;28;20448;-76
2022/05/10 13:12:26;;;;;;;15.15;3.72;;;23.10;99.90;;;;;;5046997;28;20944;-76
2022/05/10 13:14:57;;;;;;;11.20;3.78;;;22.90;99.90;;;;;;5052001;28;20414;-76
2022/05/10 13:17:30;;;;;;;11.73;3.58;;;23.10;99.90;;;;;;5063818;28;20457;-76
2022/05/10 13:19:58;;;;;;;10.55;3.30;;;23.00;99.90;;;;;;5034325;28;20425;-76
2022/05/10 13:22:25;;;;;;;9.30;3.00;;;23.20;99.90;;;;;;5052973;28;20494;-77
2022/05/10 13:24:56;;;;;;;7.50;2.70;;;22.40;99.90;;;;;;5052226;28;20385;-77
2022/05/10 13:27:34;;;;;;;9.20;2.53;;;23.50;99.90;;;;;;5041068;28;20453;-76
2022/05/10 13:30:23;;;;;;;7.80;2.00;;;22.40;99.90;;;;;;5048206;28;20429;-77
2022/05/10 13:32:52;;;;;;;6.88;2.28;;;22.40;99.90;;;;;;5055043;28;20426;-77
2022/05/10 13:35:28;;;;;;;8.50;2.40;;;22.70;99.90;;;;;;5055066;28;20429;-75
2022/05/10 13:38:10;;;;;;;8.27;1.92;;;22.50;99.90;;;;;;5039534;28;20567;-76
2022/05/10 13:40:53;;;;;;;6.97;1.70;;;22.40;99.90;;;;;;5043274;28;20444;-76
2022/05/10 13:43:25;;;;;;;6.38;1.63;;;22.40;99.20;;;;;;5033762;28;20421;-76
2022/05/10 13:46:05;;;;;;;5.75;1.45;;;22.40;99.20;;;;;;5044738;28;20746;-76
2022/05/10 13:48:46;;;;;;;5.10;1.42;;;22.10;97.40;;;;;;5038541;28;20440;-76
2022/05/10 13:51:33;;;;;;;7.00;1.58;;;22.40;97.80;;;;;;5044149;28;20419;-76
2022/05/10 13:54:08;;;;;;;4.78;1.30;;;22.10;96.50;;;;;;5025472;28;20424;-77
2022/05/10 13:56:39;;;;;;;5.32;1.35;;;21.90;95.90;;;;;;5041930;28;20959;-75
2022/05/10 13:59:12;;;;;;;3.88;1.17;;;21.60;96.10;;;;;;5040680;28;20409;-75